Rio Rancho, NM

7:57 AM MDT on September 30, 2014 (GMT -0600)
Belen | Change Station
CLOSE
Current Station
Airport
Location: Belen,
Elevation: 5194 ft
Nearby Weather Stations

Elev 5194 ft 34.65 °N, 106.83 °W | Updated 22 minutes ago

Clear
Clear
46 °F
Feels Like 44 °F
N
4
Wind Variable Wind from NNW

Today
High -- | Low -- °F
--% Chance of Precip.
Yesterday
High -- | Low -- °F
Precip. -- in
7:00 AM 6:51 PM
Waxing Crescent, 37% visible
Pressure 30.06 in
Visibility 10.0 miles
Clouds Clear
Windchill 44 °F
Dew Point 37 °F
Humidity 71%
Rainfall 0.00 in
Snow Depth 1 in , 1 in , 0 in
UV 0 out of 12
Pollen 5.80 out of 12
Air Quality Not available.
Flu Activity Not available.
METAR KE80 301335Z AUTO 34003KT 10SM CLR 08/03 A3006 RMK AO2 T00760026

More Conditions Fewer Conditions

Pressure 30.06 in
Visibility 10.0 miles
Clouds Clear
Windchill 44 °F
Dew Point 37 °F
Humidity 71%
Rainfall 0.00 in
Snow Depth 1 in , 1 in , 0 in
UV 0 out of 12
Pollen 5.80 out of 12
Air Quality Not available.
Flu Activity Not available.
METAR KE80 301335Z AUTO 34003KT 10SM CLR 08/03 A3006 RMK AO2 T00760026

More Conditions Fewer Conditions

10-Day Weather Forecast

Almanac

Astronomy

Sep. 30, 2014 Rise Set
Actual Time 7:00 AM MDT 6:51 PM MDT
Civil Twilight 6:35 AM MDT 7:17 PM MDT
Nautical Twilight 6:06 AM MDT 7:46 PM MDT
Astronomical Twilight 5:36 AM MDT 8:16 PM MDT
Moon 1:01 PM MDT 11:34 PM MDT
Length of Visible Light 12h 41m
Length of Day
11h 51m
Tomorrow will be 2m 11s shorter.
Waxing Crescent, 37% of the Moon is Illuminated
Today
Waxing Crescent
Oct 1
First Quarter
Oct 8
Full
Oct 15
Last Quarter
Oct 23
New

Today's Extremes

State Highs State Lows

Community

WunderPhotos

Upload Photos

1,757,636 photos uploaded!

Nearby

Snow Depth

Station Depth Elevation
North Costilla 1 in 10600 ft
Tolby 1 in 10180 ft
Chamita 0 in 8400 ft
Lookout Mountain 0 in 8500 ft
Silver Creek Divide 19 in 9000 ft

Earthquake Activity

City Distance Mag. Time & Date
No recent earthquake activity has been reported nearby.
Minimum magnitude displayed is 2.5.

Coastal Water Temperatures

Place Temperature
No Stations Reporting

Nearby Weather Stations